Terminal Aerodrome Forecast
Issued by NWS

Home | Current Version | Previous Version | Graphics & Text | Print | Product List | Glossary On
Versions: 1 2 3 4 5 6 7 8 9 10 11 12 13 14 15 16 17 18 19 20 21 22 23
099
FTUS43 KBIS 071914 AAA
TAFDIK
TAF AMD
KDIK 071914Z 0719/0818 30025G35KT 1SM BLSN BKN010
     FM072300 29021G29KT P6SM BKN015
     FM080300 29016KT P6SM BKN008
     FM080600 30014KT P6SM BKN035
     FM081100 29012KT P6SM BKN015
     FM081500 29010KT P6SM BKN008=

USA.gov is the U.S. government's official web portal to all federal, state and local government web resources and services.